Time;durP1;ratioP1;P1;durP2;ratioP2;P2;SDS_P1;SDS_P2;PMS_P1;PMS_P2;Temp;Humidity;BMP_temperature;BMP_pressure;BME280_temperature;BME280_humidity;BME280_pressure;Samples;Min_cycle;Max_cycle;Signal;HPM_P1;HPM_P2
2023/02/08 00:01:24;;;;;;;11.90;7.60;;;;;;;-3.59;65.45;103505.90;107620;1254;97777;-62
2023/02/08 00:03:53;;;;;;;17.40;9.20;;;;;;;-3.58;65.95;103506.63;107598;1256;110830;-61
2023/02/08 00:06:21;;;;;;;19.60;9.50;;;;;;;-3.57;65.97;103515.77;107629;1255;109897;-61
2023/02/08 00:08:50;;;;;;;21.70;10.80;;;;;;;-3.56;66.09;103515.60;107594;1254;108070;-62
2023/02/08 00:11:19;;;;;;;19.60;9.80;;;;;;;-3.55;66.18;103513.67;107616;1254;97842;-60
2023/02/08 00:13:47;;;;;;;22.00;9.50;;;;;;;-3.54;66.09;103517.55;107655;1254;97896;-60
2023/02/08 00:16:17;;;;;;;22.30;9.20;;;;;;;-3.55;65.59;103522.28;107633;1254;113092;-59
2023/02/08 00:18:45;;;;;;;21.90;10.20;;;;;;;-3.56;66.02;103524.89;107638;1254;107191;-61
2023/02/08 00:21:16;;;;;;;17.50;9.20;;;;;;;-3.56;65.85;103531.20;107668;1256;108364;-62
2023/02/08 00:24:02;;;;;;;21.60;9.50;;;;;;;-3.57;66.02;103526.28;107632;1254;97700;-61
2023/02/08 00:26:30;;;;;;;19.70;9.30;;;;;;;-3.58;66.08;103528.73;107634;1255;97831;-60
2023/02/08 00:28:58;;;;;;;18.30;9.70;;;;;;;-3.59;65.95;103529.94;107636;1251;111726;-61
2023/02/08 00:31:27;;;;;;;16.90;8.30;;;;;;;-3.61;66.02;103533.41;107637;1254;109836;-60
2023/02/08 00:33:55;;;;;;;16.90;9.10;;;;;;;-3.62;65.95;103529.02;107642;1256;107901;-61
2023/02/08 00:36:25;;;;;;;16.90;9.50;;;;;;;-3.63;65.73;103528.13;107642;1254;97822;-59
2023/02/08 00:38:54;;;;;;;18.80;8.40;;;;;;;-3.64;66.01;103529.69;107565;1255;98434;-60
2023/02/08 00:41:22;;;;;;;17.90;9.00;;;;;;;-3.64;66.02;103532.33;107560;1255;112658;-60
2023/02/08 00:43:51;;;;;;;15.10;8.40;;;;;;;-3.64;66.18;103534.96;107523;1254;110801;-61
2023/02/08 00:46:20;;;;;;;19.90;10.80;;;;;;;-3.64;66.09;103539.54;107578;1253;107833;-60
2023/02/08 00:48:50;;;;;;;15.60;8.30;;;;;;;-3.63;66.37;103544.28;107517;1254;97940;-60
2023/02/08 00:51:18;;;;;;;22.40;10.00;;;;;;;-3.61;66.09;103546.23;107634;1254;98372;-61
2023/02/08 00:53:49;;;;;;;18.40;9.00;;;;;;;-3.60;66.09;103550.63;107495;1254;112249;-59
2023/02/08 00:56:18;;;;;;;16.30;9.10;;;;;;;-3.60;66.03;103551.50;107573;1256;109959;-62
2023/02/08 00:58:46;;;;;;;15.20;8.70;;;;;;;-3.60;65.78;103555.36;107542;1257;108366;-60
2023/02/08 01:01:14;;;;;;;16.90;9.30;;;;;;;-3.59;65.96;103561.52;107643;1251;97842;-60
2023/02/08 01:03:43;;;;;;;17.50;9.70;;;;;;;-3.60;65.85;103562.89;107586;1255;97710;-62
2023/02/08 01:06:15;;;;;;;21.80;10.20;;;;;;;-3.61;66.18;103565.52;107607;1257;111808;-60
2023/02/08 01:08:45;;;;;;;16.10;9.10;;;;;;;-3.59;66.17;103579.58;107639;1256;110178;-61
2023/02/08 01:11:21;;;;;;;15.00;9.30;;;;;;;-3.60;66.00;103579.92;107677;1256;109470;-62
2023/02/08 01:13:54;;;;;;;19.10;9.70;;;;;;;-3.62;66.31;103582.52;107644;1255;97869;-61
2023/02/08 01:16:27;;;;;;;17.60;9.30;;;;;;;-3.63;66.20;103590.41;107667;1255;97938;-61
2023/02/08 01:18:58;;;;;;;19.50;10.00;;;;;;;-3.64;66.09;103589.34;107605;1254;112143;-60
2023/02/08 01:21:29;;;;;;;19.40;10.20;;;;;;;-3.64;66.45;103592.49;107673;1254;109333;-58
2023/02/08 01:23:59;;;;;;;19.60;9.80;;;;;;;-3.62;66.58;103589.36;107605;1255;108119;-59
2023/02/08 01:26:30;;;;;;;16.70;9.70;;;;;;;-3.60;66.63;103590.10;107627;1251;97841;-59
2023/02/08 01:28:59;;;;;;;18.50;10.60;;;;;;;-3.57;66.84;103591.17;107574;1254;97691;-59
2023/02/08 01:31:34;;;;;;;16.10;8.80;;;;;;;-3.56;66.62;103596.48;107564;1254;111202;-60
2023/02/08 01:34:04;;;;;;;16.70;8.80;;;;;;;-3.54;66.57;103604.06;107588;1253;109278;-60
2023/02/08 01:36:33;;;;;;;27.10;10.40;;;;;;;-3.51;66.60;103607.09;107544;1254;108698;-61
2023/02/08 01:39:03;;;;;;;17.80;9.60;;;;;;;-3.49;66.89;103612.38;107448;1254;97829;-62
2023/02/08 01:41:35;;;;;;;16.10;9.40;;;;;;;-3.50;66.79;103614.12;107600;1254;97848;-61
2023/02/08 01:44:12;;;;;;;15.60;9.20;;;;;;;-3.50;66.49;103615.35;107585;1257;112281;-60
2023/02/08 01:46:43;;;;;;;18.90;10.40;;;;;;;-3.54;66.35;103611.06;107460;1254;109672;-61
2023/02/08 01:49:18;;;;;;;16.30;8.40;;;;;;;-3.57;66.62;103616.27;107555;1257;108586;-60
2023/02/08 01:52:00;;;;;;;19.70;10.40;;;;;;;-3.61;66.76;103617.10;107556;1255;97829;-59
2023/02/08 01:54:34;;;;;;;22.20;10.30;;;;;;;-3.61;66.84;103620.08;107450;1254;99575;-60
2023/02/08 01:57:03;;;;;;;24.50;11.10;;;;;;;-3.62;66.77;103625.33;107580;1254;112275;-60
2023/02/08 01:59:44;;;;;;;23.20;10.70;;;;;;;-3.66;66.73;103626.84;107306;1254;110274;-60
2023/02/08 02:02:16;;;;;;;19.10;10.90;;;;;;;-3.70;67.12;103633.07;107570;1256;108737;-59
2023/02/08 02:04:46;;;;;;;21.40;11.10;;;;;;;-3.73;67.02;103636.89;107488;1255;97783;-60
2023/02/08 02:07:18;;;;;;;25.90;11.40;;;;;;;-3.74;67.59;103638.27;107544;1254;97721;-59
2023/02/08 02:09:57;;;;;;;19.90;10.80;;;;;;;-3.75;67.52;103639.65;107581;1254;112197;-61
2023/02/08 02:12:30;;;;;;;24.00;12.10;;;;;;;-3.78;67.81;103645.40;107562;1254;109690;-60
2023/02/08 02:15:00;;;;;;;23.10;11.90;;;;;;;-3.80;67.79;103647.47;107524;1254;106950;-60
2023/02/08 02:17:29;;;;;;;20.50;11.40;;;;;;;-3.81;68.05;103649.21;107583;1254;97828;-60
2023/02/08 02:20:00;;;;;;;24.80;11.70;;;;;;;-3.80;67.72;103656.05;107609;1254;97957;-60
2023/02/08 02:22:51;;;;;;;21.20;10.90;;;;;;;-3.79;67.97;103657.30;107578;1254;111853;-60
2023/02/08 02:25:44;;;;;;;28.50;11.80;;;;;;;-3.80;67.89;103662.02;107577;1254;109662;-61
2023/02/08 02:28:31;;;;;;;16.20;9.90;;;;;;;-3.83;67.98;103666.73;107479;1254;108282;-61
2023/02/08 02:31:21;;;;;;;19.90;10.60;;;;;;;-3.85;67.67;103672.44;107569;1254;97831;-58
2023/02/08 02:33:52;;;;;;;20.40;12.00;;;;;;;-3.88;67.77;103677.48;107570;1254;97810;-60
2023/02/08 02:36:36;;;;;;;19.70;10.80;;;;;;;-3.91;67.72;103680.23;107614;1254;111624;-59
2023/02/08 02:39:22;;;;;;;22.20;10.10;;;;;;;-3.91;67.64;103681.98;107590;1254;109322;-61
2023/02/08 02:45:14;;;;;;;19.30;9.70;;;;;;;-3.97;67.26;103691.33;107631;1254;97818;-59
2023/02/08 02:47:52;;;;;;;22.90;9.70;;;;;;;-3.99;67.23;103692.00;107627;1256;98408;-61
2023/02/08 02:50:40;;;;;;;21.40;10.30;;;;;;;-4.01;67.43;103690.39;107623;1254;112434;-59
2023/02/08 02:53:20;;;;;;;19.90;9.00;;;;;;;-4.02;67.44;103692.46;107673;1254;110161;-60
2023/02/08 02:55:57;;;;;;;23.10;10.40;;;;;;;-4.01;67.50;103700.55;107655;1253;107669;-60
2023/02/08 02:58:27;;;;;;;19.00;8.70;;;;;;;-4.01;67.60;103698.61;107622;1256;97925;-61
2023/02/08 03:00:58;;;;;;;19.00;10.10;;;;;;;-4.02;67.48;103708.77;107674;1254;98414;-59
2023/02/08 03:03:30;;;;;;;20.60;8.70;;;;;;;-4.02;67.44;103713.52;107604;1254;112395;-60
2023/02/08 03:06:42;;;;;;;21.90;10.20;;;;;;;-4.03;67.61;103716.30;107587;1254;107510;-60
2023/02/08 03:09:29;;;;;;;18.80;9.40;;;;;;;-4.06;67.72;103719.38;107545;1254;108688;-63
2023/02/08 03:12:15;;;;;;;23.20;10.00;;;;;;;-4.08;68.25;103719.70;107609;1253;97857;-61
2023/02/08 03:14:55;;;;;;;21.60;11.10;;;;;;;-4.10;67.60;103714.95;107703;1254;97951;-60
2023/02/08 03:17:53;;;;;;;23.30;10.60;;;;;;;-4.14;67.64;103719.92;107652;1254;111191;-59
2023/02/08 03:20:44;;;;;;;22.50;9.60;;;;;;;-4.15;67.38;103718.15;107661;1253;109792;-60
2023/02/08 03:23:20;;;;;;;25.30;10.50;;;;;;;-4.18;67.74;103722.48;107635;1256;107801;-60
2023/02/08 03:26:04;;;;;;;25.10;11.70;;;;;;;-4.19;67.65;103729.65;107518;1254;97829;-60
2023/02/08 03:28:44;;;;;;;18.00;10.00;;;;;;;-4.19;67.90;103737.34;107585;1254;97793;-59
2023/02/08 03:31:41;;;;;;;21.90;10.10;;;;;;;-4.19;67.74;103742.08;107643;1254;112097;-60
2023/02/08 03:34:22;;;;;;;23.10;9.90;;;;;;;-4.20;67.51;103744.16;107691;1255;109273;-59
2023/02/08 03:37:15;;;;;;;21.70;10.10;;;;;;;-4.23;67.44;103750.94;107603;1257;108519;-62
2023/02/08 03:39:47;;;;;;;22.30;10.00;;;;;;;-4.22;67.57;103757.98;107581;1254;97886;-60
2023/02/08 03:42:23;;;;;;;18.40;10.30;;;;;;;-4.19;67.30;103765.91;107584;1254;97999;-61
2023/02/08 03:45:16;;;;;;;29.50;11.30;;;;;;;-4.18;67.31;103771.56;107598;1255;112229;-61
2023/02/08 03:47:48;;;;;;;19.20;9.40;;;;;;;-4.19;66.89;103774.34;107642;1254;109138;-60
2023/02/08 03:50:19;;;;;;;23.80;10.90;;;;;;;-4.23;66.91;103772.84;107602;1254;108065;-60
2023/02/08 03:52:51;;;;;;;23.50;11.10;;;;;;;-4.28;67.15;103772.73;107545;1254;97922;-60
2023/02/08 03:55:25;;;;;;;24.40;11.00;;;;;;;-4.30;67.22;103766.72;107641;1254;98360;-63
2023/02/08 03:58:33;;;;;;;23.20;11.00;;;;;;;-4.32;67.05;103759.50;107567;1255;112000;-61
2023/02/08 04:01:28;;;;;;;20.70;10.00;;;;;;;-4.38;67.48;103764.63;107589;1254;109273;-60
2023/02/08 04:04:00;;;;;;;26.00;11.50;;;;;;;-4.46;67.25;103771.98;107604;1254;108310;-60
2023/02/08 04:06:28;;;;;;;26.60;11.50;;;;;;;-4.51;67.38;103774.69;107657;1253;97862;-59
2023/02/08 04:08:57;;;;;;;26.40;12.30;;;;;;;-4.52;67.66;103784.28;107561;1255;97713;-61
2023/02/08 04:11:26;;;;;;;21.20;11.10;;;;;;;-4.55;67.51;103791.41;107556;1254;111785;-61
2023/02/08 04:13:54;;;;;;;25.10;11.30;;;;;;;-4.58;67.64;103796.95;107664;1254;109671;-60
2023/02/08 04:16:23;;;;;;;24.50;11.70;;;;;;;-4.60;67.59;103800.25;107651;1254;107275;-59
2023/02/08 04:18:51;;;;;;;21.20;11.20;;;;;;;-4.57;67.87;103805.02;107525;1254;97904;-60
2023/02/08 04:21:20;;;;;;;21.80;11.80;;;;;;;-4.56;67.50;103801.20;107606;1254;97893;-60
2023/02/08 04:23:48;;;;;;;26.90;11.60;;;;;;;-4.57;67.77;103809.58;107581;1254;111663;-61
2023/02/08 04:26:17;;;;;;;29.80;12.60;;;;;;;-4.58;67.46;103812.88;107459;1254;109222;-60
2023/02/08 04:28:45;;;;;;;21.20;11.80;;;;;;;-4.61;67.46;103814.20;107661;1251;108055;-59
2023/02/08 04:31:14;;;;;;;28.90;12.60;;;;;;;-4.66;66.74;103818.47;107642;1254;98267;-60
2023/02/08 04:33:42;;;;;;;30.00;13.10;;;;;;;-4.73;67.25;103824.60;107672;1253;98504;-60
2023/02/08 04:36:10;;;;;;;34.50;13.00;;;;;;;-4.77;67.29;103833.08;107758;1251;111608;-60
2023/02/08 04:38:39;;;;;;;27.20;14.00;;;;;;;-4.81;67.14;103837.73;107671;1253;109442;-61
2023/02/08 04:41:07;;;;;;;31.80;12.40;;;;;;;-4.85;67.38;103838.15;107681;1254;107653;-61
2023/02/08 04:43:36;;;;;;;31.40;13.10;;;;;;;-4.93;67.53;103842.50;107642;1251;97909;-59
2023/02/08 04:46:04;;;;;;;25.80;13.20;;;;;;;-4.97;67.83;103849.38;107716;1254;97931;-59
2023/02/08 04:48:32;;;;;;;21.90;12.30;;;;;;;-4.99;67.83;103853.70;107649;1254;111838;-64
2023/02/08 04:51:01;;;;;;;30.90;14.00;;;;;;;-5.03;67.98;103862.02;107688;1251;108634;-60
2023/02/08 04:53:47;;;;;;;26.40;12.60;;;;;;;-5.05;67.93;103866.51;107663;1254;108956;-63
2023/02/08 04:56:16;;;;;;;34.00;14.20;;;;;;;-5.11;67.84;103866.52;107703;1254;97895;-60
2023/02/08 04:58:45;;;;;;;30.00;12.00;;;;;;;-5.12;67.86;103868.79;107652;1254;97777;-60
2023/02/08 05:01:15;;;;;;;38.10;14.60;;;;;;;-5.13;68.09;103869.63;107682;1251;111711;-60
2023/02/08 05:03:43;;;;;;;35.10;13.10;;;;;;;-5.17;68.43;103872.66;107641;1253;109818;-60
2023/02/08 05:06:12;;;;;;;35.00;14.20;;;;;;;-5.23;67.89;103875.49;107578;1253;108765;-60
2023/02/08 05:08:41;;;;;;;31.40;12.30;;;;;;;-5.25;68.23;103876.82;107617;1257;97868;-60
2023/02/08 05:11:10;;;;;;;38.70;14.50;;;;;;;-5.30;68.35;103873.89;107644;1253;97808;-61
2023/02/08 05:13:38;;;;;;;29.20;13.30;;;;;;;-5.34;68.50;103884.45;107685;1251;111759;-60
2023/02/08 05:16:06;;;;;;;29.60;14.60;;;;;;;-5.40;68.07;103886.21;107626;1251;110004;-61
2023/02/08 05:18:35;;;;;;;32.10;14.00;;;;;;;-5.43;68.17;103893.31;107689;1254;108253;-60
2023/02/08 05:21:04;;;;;;;29.70;13.20;;;;;;;-5.47;68.22;103899.99;107688;1252;97840;-61
2023/02/08 05:23:33;;;;;;;28.40;13.20;;;;;;;-5.55;68.27;103900.46;107699;1256;97708;-62
2023/02/08 05:26:07;;;;;;;30.90;13.20;;;;;;;-5.63;68.47;103911.07;107585;1254;111224;-61
2023/02/08 05:28:36;;;;;;;34.20;13.40;;;;;;;-5.72;68.52;103917.83;107507;1254;110155;-61
2023/02/08 05:31:31;;;;;;;23.50;12.20;;;;;;;-5.77;68.59;103922.53;107552;1254;108414;-60
2023/02/08 05:33:59;;;;;;;28.30;13.90;;;;;;;-5.81;68.65;103926.80;107513;1252;97967;-61
2023/02/08 05:36:28;;;;;;;33.80;12.90;;;;;;;-5.83;68.96;103936.54;107600;1254;97810;-61
2023/02/08 05:38:57;;;;;;;26.40;13.30;;;;;;;-5.86;68.80;103945.52;107565;1254;111485;-61
2023/02/08 05:41:25;;;;;;;32.80;13.50;;;;;;;-5.84;69.22;103957.67;107576;1254;109319;-59
2023/02/08 05:43:53;;;;;;;34.60;14.20;;;;;;;-5.83;68.91;103963.09;107578;1254;108619;-61
2023/02/08 05:46:21;;;;;;;29.00;12.30;;;;;;;-5.85;68.84;103969.84;107516;1252;97924;-60
2023/02/08 05:48:50;;;;;;;26.70;12.40;;;;;;;-5.88;68.78;103974.50;107573;1254;97776;-59
2023/02/08 05:51:19;;;;;;;28.40;13.10;;;;;;;-5.87;69.15;103978.02;107506;1253;111969;-60
2023/02/08 05:53:48;;;;;;;28.30;14.00;;;;;;;-5.82;68.91;103983.94;107434;1254;109531;-59
2023/02/08 05:56:16;;;;;;;34.30;15.00;;;;;;;-5.76;69.11;103988.48;107513;1254;107555;-60
2023/02/08 05:58:45;;;;;;;33.40;13.70;;;;;;;-5.71;68.85;103991.63;107577;1254;97878;-60
2023/02/08 06:01:13;;;;;;;36.30;14.30;;;;;;;-5.68;68.58;103988.40;107592;1254;97786;-60
2023/02/08 06:03:42;;;;;;;32.00;13.00;;;;;;;-5.63;68.54;103993.97;107573;1256;111048;-60
2023/02/08 06:06:10;;;;;;;30.70;13.70;;;;;;;-5.62;68.37;103990.33;107596;1254;110096;-60
2023/02/08 06:08:39;;;;;;;24.40;13.60;;;;;;;-5.63;68.40;103990.12;107524;1253;108661;-61
2023/02/08 06:11:08;;;;;;;32.30;14.20;;;;;;;-5.63;68.15;103992.92;107476;1254;97937;-60
2023/02/08 06:13:37;;;;;;;29.30;13.00;;;;;;;-5.59;68.36;103998.27;107463;1254;97825;-60
2023/02/08 06:16:06;;;;;;;31.90;14.70;;;;;;;-5.58;68.33;104006.52;107590;1254;111909;-60
2023/02/08 06:18:34;;;;;;;30.60;14.40;;;;;;;-5.58;68.31;104013.54;107567;1254;109998;-60
2023/02/08 06:21:03;;;;;;;34.50;15.40;;;;;;;-5.55;68.20;104017.46;107589;1254;106727;-60
2023/02/08 06:23:32;;;;;;;35.70;17.10;;;;;;;-5.51;68.59;104023.72;107577;1254;97831;-60
2023/02/08 06:26:01;;;;;;;35.80;15.10;;;;;;;-5.46;68.56;104025.27;107588;1254;97737;-60
2023/02/08 06:28:29;;;;;;;31.40;16.00;;;;;;;-5.41;68.85;104028.92;107554;1253;111769;-60
2023/02/08 06:30:58;;;;;;;34.60;15.40;;;;;;;-5.38;68.21;104032.17;107584;1253;109700;-61
2023/02/08 06:33:26;;;;;;;29.50;14.20;;;;;;;-5.34;68.46;104036.68;107644;1253;107655;-60
2023/02/08 06:35:54;;;;;;;35.30;14.90;;;;;;;-5.30;68.26;104037.48;107605;1253;98588;-60
2023/02/08 06:38:23;;;;;;;28.20;13.40;;;;;;;-5.29;68.02;104039.26;107582;1255;97824;-62
2023/02/08 06:40:51;;;;;;;29.00;12.80;;;;;;;-5.25;68.22;104039.73;107599;1254;112031;-60
2023/02/08 06:43:20;;;;;;;28.90;13.30;;;;;;;-5.23;68.02;104036.28;107616;1256;110114;-61
2023/02/08 06:45:48;;;;;;;31.50;13.30;;;;;;;-5.19;67.26;104039.92;107631;1254;108303;-61
2023/02/08 06:48:16;;;;;;;26.80;12.10;;;;;;;-5.21;66.74;104039.49;107613;1254;97851;-61
2023/02/08 06:50:45;;;;;;;27.10;12.50;;;;;;;-5.27;66.35;104042.47;107642;1254;97737;-60
2023/02/08 06:53:13;;;;;;;23.50;10.50;;;;;;;-5.35;66.27;104045.19;107585;1253;111910;-61
2023/02/08 06:55:42;;;;;;;29.90;14.10;;;;;;;-5.47;65.59;104057.42;107607;1254;111029;-61
2023/02/08 06:58:10;;;;;;;31.00;13.60;;;;;;;-5.54;66.27;104066.66;107504;1256;107391;-61
2023/02/08 07:00:38;;;;;;;35.50;14.90;;;;;;;-5.53;66.44;104068.95;107551;1253;97816;-63
2023/02/08 07:03:08;;;;;;;32.70;14.30;;;;;;;-5.52;66.50;104074.08;107583;1254;97937;-59
2023/02/08 07:05:38;;;;;;;33.60;13.90;;;;;;;-5.52;66.42;104078.63;107509;1255;112462;-61
2023/02/08 07:08:07;;;;;;;36.80;17.30;;;;;;;-5.54;66.44;104079.61;107507;1253;110154;-62
2023/02/08 07:10:38;;;;;;;32.60;13.80;;;;;;;-5.57;65.74;104082.29;107316;1254;107070;-61
2023/02/08 07:13:07;;;;;;;32.50;15.00;;;;;;;-5.60;66.04;104082.73;107502;1253;98016;-62
2023/02/08 07:15:36;;;;;;;34.60;15.10;;;;;;;-5.58;66.07;104088.91;107539;1254;97888;-61
2023/02/08 07:18:04;;;;;;;34.00;15.80;;;;;;;-5.57;66.06;104088.58;107617;1253;111860;-60
2023/02/08 07:20:32;;;;;;;28.50;13.80;;;;;;;-5.54;66.24;104092.19;107588;1253;111294;-62
2023/02/08 07:23:01;;;;;;;33.10;15.60;;;;;;;-5.50;66.45;104094.58;107380;1254;107619;-59
2023/02/08 07:25:29;;;;;;;34.30;16.00;;;;;;;-5.50;66.15;104095.80;107488;1256;97847;-61
2023/02/08 07:27:57;;;;;;;32.30;16.20;;;;;;;-5.47;66.06;104100.29;107481;1254;98360;-61
2023/02/08 07:30:26;;;;;;;35.90;16.00;;;;;;;-5.40;66.17;104104.87;107680;1253;112489;-59
2023/02/08 07:32:55;;;;;;;31.30;15.90;;;;;;;-5.34;66.02;104105.40;107650;1254;109956;-60
2023/02/08 07:35:23;;;;;;;30.50;16.30;;;;;;;-5.29;65.99;104108.73;107461;1253;108054;-60
2023/02/08 07:37:51;;;;;;;35.20;15.30;;;;;;;-5.27;65.22;104108.08;107624;1256;97966;-60
2023/02/08 07:40:19;;;;;;;37.10;15.20;;;;;;;-5.30;64.68;104109.04;107584;1254;97738;-61
2023/02/08 07:42:47;;;;;;;32.90;13.90;;;;;;;-5.27;64.95;104114.38;107587;1254;111274;-60
2023/02/08 07:45:22;;;;;;;31.30;15.80;;;;;;;-5.30;64.57;104123.20;107626;1251;109397;-60
2023/02/08 07:47:50;;;;;;;34.40;17.00;;;;;;;-5.26;64.83;104121.59;107658;1254;108162;-60
2023/02/08 07:50:19;;;;;;;36.70;15.90;;;;;;;-5.15;64.93;104119.83;107615;1256;97860;-60
2023/02/08 07:52:48;;;;;;;28.20;15.60;;;;;;;-5.01;65.66;104122.72;107603;1253;97986;-60
2023/02/08 07:55:16;;;;;;;32.40;16.50;;;;;;;-4.84;65.22;104124.61;107634;1251;112437;-60
2023/02/08 07:57:47;;;;;;;39.10;15.80;;;;;;;-4.71;65.12;104118.54;107709;1252;110661;-61
2023/02/08 08:00:17;;;;;;;38.90;15.60;;;;;;;-4.57;65.39;104122.95;107542;1253;108090;-61
2023/02/08 08:02:45;;;;;;;31.80;15.30;;;;;;;-4.49;64.32;104127.39;107555;1254;97941;-60
2023/02/08 08:05:13;;;;;;;39.10;16.50;;;;;;;-4.44;64.10;104128.58;107583;1254;97933;-61
2023/02/08 08:07:42;;;;;;;34.10;15.30;;;;;;;-4.34;64.00;104130.44;107631;1254;111127;-60
2023/02/08 08:10:10;;;;;;;32.30;15.50;;;;;;;-4.25;62.80;104126.84;107578;1253;109330;-61
2023/02/08 08:12:38;;;;;;;32.40;15.60;;;;;;;-4.18;62.59;104123.52;107635;1252;108110;-60
2023/02/08 08:15:08;;;;;;;40.30;18.10;;;;;;;-4.19;61.16;104125.06;107719;1251;97842;-62
2023/02/08 08:17:38;;;;;;;46.20;20.30;;;;;;;-4.24;60.69;104128.45;107705;1253;98939;-60
2023/02/08 08:20:09;;;;;;;54.60;22.40;;;;;;;-4.12;61.59;104132.27;107707;1254;111505;-61
2023/02/08 08:22:37;;;;;;;52.40;20.80;;;;;;;-3.95;61.86;104129.91;107673;1253;108833;-61
2023/02/08 08:25:06;;;;;;;52.30;21.50;;;;;;;-3.69;61.95;104124.10;107644;1254;107272;-60
2023/02/08 08:27:34;;;;;;;36.00;17.10;;;;;;;-3.40;62.13;104127.25;107584;1254;97876;-60
2023/02/08 08:30:06;;;;;;;35.20;17.70;;;;;;;-3.08;62.17;104123.41;107569;1254;98560;-60
2023/02/08 08:32:36;;;;;;;34.20;17.10;;;;;;;-2.88;61.48;104122.80;107644;1254;110968;-60
2023/02/08 08:35:06;;;;;;;36.70;17.20;;;;;;;-2.72;61.72;104126.67;107722;1253;110019;-60
2023/02/08 08:37:35;;;;;;;37.60;16.10;;;;;;;-2.61;61.00;104128.65;107668;1254;107382;-60
2023/02/08 08:40:05;;;;;;;37.40;16.80;;;;;;;-2.50;60.37;104134.52;107650;1253;97838;-60
2023/02/08 08:42:41;;;;;;;40.20;15.50;;;;;;;-2.40;60.25;104135.23;107606;1253;97835;-60
2023/02/08 08:45:10;;;;;;;26.80;14.10;;;;;;;-2.25;60.46;104129.20;107654;1254;110924;-60
2023/02/08 08:47:38;;;;;;;33.80;16.30;;;;;;;-2.13;59.99;104133.99;107622;1254;109632;-61
2023/02/08 08:50:08;;;;;;;32.60;16.20;;;;;;;-2.08;59.37;104139.21;107619;1253;108609;-60
2023/02/08 08:52:36;;;;;;;36.70;16.30;;;;;;;-2.05;59.79;104140.64;107566;1256;97711;-60
2023/02/08 08:55:05;;;;;;;33.80;15.80;;;;;;;-1.93;59.53;104142.12;107629;1254;97838;-60
2023/02/08 08:57:34;;;;;;;28.40;14.10;;;;;;;-1.91;58.44;104145.13;107652;1253;110414;-60
2023/02/08 09:00:03;;;;;;;34.60;15.80;;;;;;;-1.87;58.89;104145.55;107659;1254;110086;-60
2023/02/08 09:02:31;;;;;;;31.50;16.10;;;;;;;-1.82;57.13;104149.70;107580;1251;107673;-61
2023/02/08 09:05:03;;;;;;;36.30;16.70;;;;;;;-1.78;58.08;104156.45;107575;1256;97857;-61
2023/02/08 09:07:32;;;;;;;31.10;16.30;;;;;;;-1.67;57.51;104163.14;107650;1252;97921;-61
2023/02/08 09:10:01;;;;;;;32.40;15.80;;;;;;;-1.61;57.54;104172.93;107593;1253;111628;-61
2023/02/08 09:12:29;;;;;;;39.00;16.60;;;;;;;-1.51;56.89;104177.86;107554;1254;110155;-62
2023/02/08 09:14:58;;;;;;;34.80;16.90;;;;;;;-1.34;56.50;104175.33;107587;1252;108210;-61
2023/02/08 09:17:26;;;;;;;29.90;16.20;;;;;;;-0.99;56.14;104175.34;107643;1254;97814;-60
2023/02/08 09:19:54;;;;;;;36.00;16.20;;;;;;;-0.35;56.23;104177.06;107670;1253;97829;-60
2023/02/08 09:22:23;;;;;;;30.70;16.50;;;;;;;0.50;55.04;104170.36;107705;1252;111917;-60
2023/02/08 09:24:52;;;;;;;29.70;15.20;;;;;;;1.16;53.52;104169.41;107654;1251;109676;-60
2023/02/08 09:27:21;;;;;;;26.80;15.30;;;;;;;1.74;52.02;104166.49;107672;1252;108399;-59
2023/02/08 09:29:49;;;;;;;29.60;15.40;;;;;;;2.25;51.19;104166.78;107683;1253;97819;-59
2023/02/08 09:32:19;;;;;;;29.30;15.00;;;;;;;2.80;51.65;104163.59;107719;1253;97742;-60
2023/02/08 09:34:48;;;;;;;31.70;15.60;;;;;;;3.19;48.83;104161.39;107535;1251;111999;-60
2023/02/08 09:37:16;;;;;;;31.60;16.60;;;;;;;3.68;49.24;104159.25;107607;1251;110126;-60
2023/02/08 09:39:45;;;;;;;27.30;15.50;;;;;;;4.24;48.23;104155.70;107694;1253;107915;-60
2023/02/08 09:42:39;;;;;;;28.30;15.20;;;;;;;4.67;46.81;104152.86;107614;1254;97855;-60
2023/02/08 09:45:10;;;;;;;;;;;;;;;4.85;45.11;104149.30;107639;1253;97931;-61
2023/02/08 09:48:20;;;;;;;30.40;14.90;;;;;;;4.78;45.27;104144.23;107682;1254;112340;-60
2023/02/08 09:50:55;;;;;;;28.60;15.70;;;;;;;4.88;44.72;104138.44;107537;1254;111106;-61
2023/02/08 09:53:33;;;;;;;29.60;15.00;;;;;;;5.11;44.43;104132.30;107563;1254;108069;-61
2023/02/08 09:56:06;;;;;;;26.30;15.40;;;;;;;5.36;43.46;104133.96;107619;1256;97908;-60
2023/02/08 09:58:38;;;;;;;24.90;15.50;;;;;;;5.78;43.75;104130.91;107639;1251;97716;-61
2023/02/08 10:01:17;;;;;;;32.30;16.10;;;;;;;6.33;44.01;104128.50;107712;1253;111773;-61
2023/02/08 10:03:47;;;;;;;24.90;14.40;;;;;;;6.48;42.30;104120.23;107704;1253;108980;-60
2023/02/08 10:06:18;;;;;;;27.00;14.50;;;;;;;6.67;40.99;104125.78;107636;1252;108813;-62
2023/02/08 10:08:50;;;;;;;25.30;14.40;;;;;;;6.87;41.19;104123.26;107565;1251;97851;-60
2023/02/08 10:11:34;;;;;;;29.20;16.10;;;;;;;7.24;41.96;104120.38;107598;1253;98463;-61
2023/02/08 10:14:05;;;;;;;26.80;15.60;;;;;;;7.50;40.95;104120.38;107675;1251;111494;-60
2023/02/08 10:16:58;;;;;;;27.70;15.90;;;;;;;7.94;41.62;104110.44;107634;1254;109995;-61
2023/02/08 10:19:32;;;;;;;27.30;16.00;;;;;;;8.38;40.48;104103.13;107552;1251;109772;-61
2023/02/08 10:22:30;;;;;;;29.00;15.20;;;;;;;8.77;38.87;104100.14;107632;1251;97871;-61
2023/02/08 10:25:24;;;;;;;27.30;15.20;;;;;;;8.94;39.61;104100.73;107394;1254;97922;-61
2023/02/08 10:28:04;;;;;;;29.10;15.60;;;;;;;9.19;38.15;104097.16;107497;1251;111911;-61
2023/02/08 10:30:52;;;;;;;24.30;15.10;;;;;;;9.36;38.39;104096.48;107689;1252;109700;-60
2023/02/08 10:33:30;;;;;;;30.20;15.50;;;;;;;9.66;37.10;104098.60;107584;1252;107809;-61
2023/02/08 10:35:58;;;;;;;27.60;15.60;;;;;;;9.71;37.99;104099.19;107608;1256;97840;-61
2023/02/08 10:38:33;;;;;;;28.40;15.70;;;;;;;9.80;37.46;104101.04;107710;1253;97737;-60
2023/02/08 10:41:26;;;;;;;29.00;15.80;;;;;;;9.94;37.05;104101.33;107622;1254;111761;-61
2023/02/08 10:44:12;;;;;;;27.80;14.30;;;;;;;9.89;36.18;104098.05;107671;1251;110007;-62
2023/02/08 10:46:46;;;;;;;22.30;13.90;;;;;;;10.00;35.49;104100.04;106804;1252;1074664;-60
2023/02/08 10:49:33;;;;;;;;;;;;;;;10.15;35.66;104102.06;107620;1254;97841;-60
2023/02/08 10:52:04;;;;;;;25.10;15.90;;;;;;;10.22;34.80;104102.70;107635;1253;97870;-61
2023/02/08 10:54:33;;;;;;;29.30;17.30;;;;;;;9.82;32.42;104104.73;107662;1253;112092;-61
2023/02/08 10:57:11;;;;;;;26.90;16.80;;;;;;;9.65;32.21;104096.84;107596;1254;109430;-60
2023/02/08 10:59:50;;;;;;;26.00;15.60;;;;;;;9.90;34.19;104092.27;107633;1253;107385;-60
2023/02/08 11:02:27;;;;;;;32.30;16.40;;;;;;;10.27;34.79;104090.00;107550;1254;98598;-61
2023/02/08 11:05:00;;;;;;;28.50;17.70;;;;;;;10.71;34.18;104088.30;107489;1254;97854;-61
2023/02/08 11:07:30;;;;;;;24.50;14.40;;;;;;;10.76;33.68;104082.05;107622;1256;111758;-61
2023/02/08 11:10:24;;;;;;;21.50;13.40;;;;;;;11.06;33.57;104083.65;107567;1252;109711;-61
2023/02/08 11:12:56;;;;;;;20.70;13.00;;;;;;;11.34;32.10;104084.89;107667;1255;107178;-61
2023/02/08 11:15:56;;;;;;;23.40;13.70;;;;;;;11.19;30.46;104089.95;107591;1253;97894;-60
2023/02/08 11:18:31;;;;;;;24.80;13.90;;;;;;;10.99;30.67;104080.28;107557;1254;98370;-62
2023/02/08 11:21:03;;;;;;;25.10;14.00;;;;;;;11.31;32.47;104077.64;107670;1253;112623;-61
2023/02/08 11:23:34;;;;;;;21.40;14.10;;;;;;;11.58;32.03;104070.28;107625;1254;109386;-60
2023/02/08 11:26:33;;;;;;;21.30;13.80;;;;;;;11.72;31.80;104072.23;107622;1254;109361;-61
2023/02/08 11:29:04;;;;;;;21.70;13.20;;;;;;;11.99;31.77;104074.92;107488;1251;97848;-61